createdAt,value
2018-09-04T00:01:14.664Z,17.70
2018-09-04T00:03:43.208Z,17.70
2018-09-04T00:06:11.850Z,17.70
2018-09-04T00:08:41.163Z,17.70
2018-09-04T00:11:11.083Z,17.70
2018-09-04T00:13:39.607Z,17.70
2018-09-04T00:16:10.072Z,17.80
2018-09-04T00:18:40.862Z,17.80
2018-09-04T00:21:09.965Z,17.80
2018-09-04T00:23:38.532Z,17.70
2018-09-04T00:26:07.509Z,17.70
2018-09-04T00:28:36.044Z,17.70
2018-09-04T00:31:04.730Z,17.70
2018-09-04T00:33:33.320Z,17.60
2018-09-04T00:36:09.093Z,17.60
2018-09-04T00:38:37.581Z,17.60
2018-09-04T00:41:06.300Z,17.70
2018-09-04T00:43:34.866Z,17.60
2018-09-04T00:46:03.423Z,17.70
2018-09-04T00:48:32.007Z,17.70
2018-09-04T00:51:00.638Z,17.70
2018-09-04T00:53:29.192Z,17.70
2018-09-04T00:55:57.703Z,17.70
2018-09-04T00:58:26.231Z,17.70
2018-09-04T01:00:55.296Z,17.70
2018-09-04T01:03:24.047Z,17.70
2018-09-04T01:05:52.575Z,17.70
2018-09-04T01:08:21.123Z,17.60
2018-09-04T01:10:49.636Z,17.60
2018-09-04T01:13:18.169Z,17.60
2018-09-04T01:15:46.669Z,17.50
2018-09-04T01:18:15.203Z,17.50
2018-09-04T01:20:44.332Z,17.60
2018-09-04T01:23:12.900Z,17.60
2018-09-04T01:25:41.427Z,17.50
2018-09-04T01:28:10.346Z,17.50
2018-09-04T01:30:38.961Z,17.40
2018-09-04T01:33:07.799Z,17.40
2018-09-04T01:35:36.373Z,17.30
2018-09-04T01:38:04.930Z,17.30
2018-09-04T01:40:33.458Z,17.30
2018-09-04T01:43:01.982Z,17.20
2018-09-04T01:45:30.715Z,17.10
2018-09-04T01:48:00.242Z,17.00
2018-09-04T01:50:28.767Z,17.00
2018-09-04T01:52:57.363Z,17.00
2018-09-04T01:55:25.846Z,16.90
2018-09-04T01:57:54.665Z,16.90
2018-09-04T02:00:23.870Z,16.80
2018-09-04T02:02:52.425Z,16.70
2018-09-04T02:05:21.568Z,16.70
2018-09-04T02:07:50.167Z,16.70
2018-09-04T02:10:18.752Z,16.70
2018-09-04T02:12:47.478Z,16.70
2018-09-04T02:15:16.051Z,16.60
2018-09-04T02:17:44.635Z,16.60
2018-09-04T02:20:13.239Z,16.50
2018-09-04T02:22:41.904Z,16.50
2018-09-04T02:25:10.854Z,16.50
2018-09-04T02:27:39.678Z,16.50
2018-09-04T02:30:08.673Z,16.60
2018-09-04T02:32:37.409Z,16.60
2018-09-04T02:35:06.043Z,16.60
2018-09-04T02:37:34.696Z,16.60
2018-09-04T02:40:03.970Z,16.50
2018-09-04T02:42:32.419Z,16.50
2018-09-04T02:45:01.543Z,16.50
2018-09-04T02:47:30.164Z,16.50
2018-09-04T02:49:58.629Z,16.50
2018-09-04T02:52:27.234Z,16.50
2018-09-04T02:54:55.743Z,16.50
2018-09-04T02:57:24.326Z,16.50
2018-09-04T02:59:53.161Z,16.50
2018-09-04T03:02:21.690Z,16.50
2018-09-04T03:04:50.251Z,16.50
2018-09-04T03:07:19.063Z,16.40
2018-09-04T03:09:47.562Z,16.40
2018-09-04T03:12:16.105Z,16.30
2018-09-04T03:14:44.659Z,16.30
2018-09-04T03:17:13.217Z,16.30
2018-09-04T03:19:41.751Z,16.20
2018-09-04T03:22:10.469Z,16.20
2018-09-04T03:24:38.946Z,16.10
2018-09-04T03:27:07.593Z,16.10
2018-09-04T03:29:36.171Z,16.00
2018-09-04T03:32:04.801Z,16.00
2018-09-04T03:34:33.318Z,16.00
2018-09-04T03:37:01.942Z,15.90
2018-09-04T03:39:30.447Z,15.90
2018-09-04T03:41:59.015Z,15.90
2018-09-04T03:44:27.563Z,15.80
2018-09-04T03:46:56.114Z,15.80
2018-09-04T03:49:24.669Z,15.80
2018-09-04T03:51:53.126Z,15.80
2018-09-04T03:54:21.779Z,15.80
2018-09-04T03:56:50.762Z,15.80
2018-09-04T03:59:19.270Z,15.80
2018-09-04T04:01:47.817Z,15.70
2018-09-04T04:04:16.326Z,15.70
2018-09-04T04:06:44.821Z,15.70
2018-09-04T04:09:13.354Z,15.70
2018-09-04T04:11:41.863Z,15.80
2018-09-04T04:14:10.520Z,15.70
2018-09-04T04:16:39.030Z,15.70
2018-09-04T04:19:07.791Z,15.70
2018-09-04T04:21:36.585Z,15.70
2018-09-04T04:24:05.739Z,15.70
2018-09-04T04:26:34.543Z,15.80
2018-09-04T04:29:03.178Z,15.80
2018-09-04T04:31:31.708Z,15.80
2018-09-04T04:34:00.225Z,15.80
2018-09-04T04:36:28.773Z,15.70
2018-09-04T04:38:57.323Z,15.70
2018-09-04T04:41:25.830Z,15.70
2018-09-04T04:43:54.456Z,15.60
2018-09-04T04:46:22.983Z,15.70
2018-09-04T04:48:51.863Z,15.60
2018-09-04T04:51:20.762Z,15.60
2018-09-04T04:53:49.950Z,15.60
2018-09-04T04:56:18.458Z,15.60
2018-09-04T04:58:47.325Z,15.60
2018-09-04T05:01:16.119Z,15.60
2018-09-04T05:03:44.729Z,15.50
2018-09-04T05:06:13.498Z,15.50
2018-09-04T05:08:41.990Z,15.60
2018-09-04T05:11:11.734Z,15.60
2018-09-04T05:13:40.546Z,15.60
2018-09-04T05:16:09.247Z,15.60
2018-09-04T05:18:37.741Z,15.60
2018-09-04T05:21:06.354Z,15.70
2018-09-04T05:23:34.859Z,15.70
2018-09-04T05:26:03.442Z,15.70
2018-09-04T05:28:31.972Z,15.70
2018-09-04T05:31:00.529Z,15.70
2018-09-04T05:33:33.136Z,15.80
2018-09-04T05:36:01.747Z,15.80
2018-09-04T05:38:30.295Z,15.80
2018-09-04T05:40:58.824Z,15.80
2018-09-04T05:43:32.690Z,15.80
2018-09-04T05:46:04.076Z,15.90
2018-09-04T05:48:32.620Z,15.90
2018-09-04T05:51:01.169Z,16.00
2018-09-04T05:53:29.761Z,16.00
2018-09-04T05:55:58.302Z,16.10
2018-09-04T05:58:26.797Z,16.20
2018-09-04T06:00:59.235Z,16.20
2018-09-04T06:03:27.772Z,16.30
2018-09-04T06:05:56.303Z,16.30
2018-09-04T06:08:24.835Z,16.50
2018-09-04T06:10:53.609Z,16.50
2018-09-04T06:13:22.135Z,16.60
2018-09-04T06:15:50.735Z,16.60
2018-09-04T06:18:19.484Z,16.70
2018-09-04T06:20:48.547Z,16.80
2018-09-04T06:23:17.172Z,16.90
2018-09-04T06:25:45.759Z,17.00
2018-09-04T06:28:14.272Z,17.10
2018-09-04T06:30:42.784Z,17.20
2018-09-04T06:33:11.317Z,17.30
2018-09-04T06:35:39.872Z,17.40
2018-09-04T06:38:08.501Z,17.50
2018-09-04T06:40:36.995Z,17.60
2018-09-04T06:43:05.561Z,17.70
2018-09-04T06:45:34.192Z,17.80
2018-09-04T06:48:02.697Z,17.80
2018-09-04T06:50:31.234Z,18.00
2018-09-04T06:52:59.762Z,18.00
2018-09-04T06:55:28.862Z,18.20
2018-09-04T06:57:57.426Z,18.30
2018-09-04T07:00:25.965Z,18.50
2018-09-04T07:02:54.564Z,18.60
2018-09-04T07:05:23.161Z,18.70
2018-09-04T07:07:51.710Z,18.80
2018-09-04T07:10:20.266Z,18.90
2018-09-04T07:12:48.796Z,19.10
2018-09-04T07:15:17.325Z,19.20
2018-09-04T07:17:45.843Z,19.20
2018-09-04T07:20:14.472Z,19.40
2018-09-04T07:22:43.015Z,19.50
2018-09-04T07:25:12.146Z,19.60
2018-09-04T07:27:40.663Z,19.70
2018-09-04T07:30:09.162Z,19.80
2018-09-04T07:32:37.665Z,19.80
2018-09-04T07:35:06.266Z,19.90
2018-09-04T07:37:34.924Z,19.90
2018-09-04T07:40:03.596Z,20.10
2018-09-04T07:42:32.172Z,20.20
2018-09-04T07:45:00.692Z,20.20
2018-09-04T07:47:29.163Z,20.40
2018-09-04T07:49:57.716Z,20.50
2018-09-04T07:52:26.494Z,20.60
2018-09-04T07:54:55.007Z,20.70
2018-09-04T07:57:24.978Z,20.80
2018-09-04T08:03:01.550Z,21.10
2018-09-04T08:05:31.924Z,21.40
2018-09-04T08:08:00.924Z,21.60
2018-09-04T08:10:34.486Z,21.90
2018-09-04T08:13:07.220Z,22.30
2018-09-04T08:15:38.084Z,22.70
2018-09-04T08:18:07.763Z,23.00
2018-09-04T08:20:44.666Z,23.40
2018-09-04T08:23:13.799Z,23.70
2018-09-04T08:25:43.181Z,24.00
2018-09-04T08:28:13.416Z,23.90
2018-09-04T08:30:42.489Z,23.80
2018-09-04T08:33:13.257Z,23.70
2018-09-04T08:35:42.516Z,24.00
2018-09-04T08:38:17.038Z,24.10
2018-09-04T08:40:46.663Z,24.20
2018-09-04T08:43:16.884Z,24.20
2018-09-04T08:45:46.938Z,24.30
2018-09-04T08:48:23.869Z,24.30
2018-09-04T08:51:01.064Z,24.30
2018-09-04T08:53:30.845Z,24.50
2018-09-04T08:55:59.997Z,24.40
2018-09-04T08:58:29.352Z,24.40
2018-09-04T09:00:59.228Z,24.50
2018-09-04T09:03:27.874Z,24.90
2018-09-04T09:05:56.727Z,25.10
2018-09-04T09:08:25.446Z,25.00
2018-09-04T09:10:54.088Z,25.20
2018-09-04T09:13:23.921Z,24.90
2018-09-04T09:15:53.354Z,24.60
2018-09-04T09:18:22.075Z,24.40
2018-09-04T09:20:51.023Z,24.10
2018-09-04T09:23:19.981Z,24.00
2018-09-04T09:25:49.180Z,23.80
2018-09-04T09:28:17.924Z,23.70
2018-09-04T09:30:46.644Z,23.70
2018-09-04T09:33:15.402Z,23.90
2018-09-04T09:35:44.243Z,24.40
2018-09-04T09:38:13.267Z,24.60
2018-09-04T09:40:41.993Z,24.60
2018-09-04T09:43:10.768Z,24.70
2018-09-04T09:45:39.609Z,24.70
2018-09-04T09:48:08.448Z,24.70
2018-09-04T09:50:37.231Z,24.70
2018-09-04T09:53:06.235Z,24.90
2018-09-04T09:55:35.042Z,24.70
2018-09-04T09:58:03.948Z,24.80
2018-09-04T10:00:33.669Z,24.90
2018-09-04T10:03:06.898Z,24.90
2018-09-04T10:05:35.735Z,24.90
2018-09-04T10:08:04.592Z,24.80
2018-09-04T10:10:33.165Z,25.10
2018-09-04T10:13:02.859Z,25.00
2018-09-04T10:15:31.590Z,25.20
2018-09-04T10:18:01.119Z,25.30
2018-09-04T10:20:30.830Z,25.50
2018-09-04T10:23:06.397Z,25.80
2018-09-04T10:25:35.158Z,25.80
2018-09-04T10:28:04.116Z,25.90
2018-09-04T10:30:32.983Z,26.00
2018-09-04T10:33:01.769Z,25.80
2018-09-04T10:35:30.925Z,25.70
2018-09-04T10:37:59.691Z,25.60
2018-09-04T10:40:33.792Z,25.70
2018-09-04T10:43:02.604Z,25.50
2018-09-04T10:45:36.849Z,25.40
2018-09-04T10:48:05.976Z,25.60
2018-09-04T10:50:35.042Z,25.80
2018-09-04T10:53:03.912Z,26.00
2018-09-04T10:55:32.651Z,26.20
2018-09-04T10:58:01.345Z,26.30
2018-09-04T11:00:30.267Z,26.50
2018-09-04T11:02:59.020Z,26.40
2018-09-04T11:05:27.839Z,26.50
2018-09-04T11:07:57.192Z,26.50
2018-09-04T11:10:26.100Z,26.50
2018-09-04T11:12:55.264Z,26.60
2018-09-04T11:15:24.580Z,26.50
2018-09-04T11:17:53.431Z,26.40
2018-09-04T11:20:22.490Z,26.20
2018-09-04T11:22:51.215Z,26.20
2018-09-04T11:25:19.896Z,26.10
2018-09-04T11:27:48.743Z,25.70
2018-09-04T11:30:17.835Z,25.30
2018-09-04T11:32:46.535Z,25.20
2018-09-04T11:35:15.272Z,25.30
2018-09-04T11:37:44.063Z,25.30
2018-09-04T11:40:12.687Z,25.30
2018-09-04T11:42:41.854Z,25.50
2018-09-04T11:45:11.061Z,25.80
2018-09-04T11:47:42.129Z,25.80
2018-09-04T11:50:11.787Z,25.90
2018-09-04T11:52:40.562Z,25.90
2018-09-04T11:55:10.549Z,26.00
2018-09-04T11:57:39.364Z,26.10
2018-09-04T12:00:09.792Z,26.20
2018-09-04T12:02:39.915Z,26.30
2018-09-04T12:05:08.682Z,26.30
2018-09-04T12:07:37.569Z,26.30
2018-09-04T12:10:07.100Z,26.40
2018-09-04T12:12:36.503Z,26.50
2018-09-04T12:15:05.175Z,26.60
2018-09-04T12:17:34.388Z,26.60
2018-09-04T12:20:40.506Z,26.50
2018-09-04T12:23:09.437Z,26.50
2018-09-04T12:25:38.344Z,26.50
2018-09-04T12:28:07.526Z,26.40
2018-09-04T12:30:36.534Z,26.30
2018-09-04T12:33:05.548Z,26.30
2018-09-04T12:35:34.787Z,26.30
2018-09-04T12:38:04.617Z,26.30
2018-09-04T12:40:33.875Z,26.20
2018-09-04T12:43:03.384Z,26.20
2018-09-04T12:45:37.536Z,26.30
2018-09-04T12:48:06.481Z,26.30
2018-09-04T12:50:35.937Z,26.40
2018-09-04T12:53:04.816Z,26.40
2018-09-04T12:55:34.400Z,26.50
2018-09-04T12:58:03.107Z,26.50
2018-09-04T13:00:31.986Z,26.50
2018-09-04T13:03:00.672Z,26.50
2018-09-04T13:05:29.408Z,26.40
2018-09-04T13:07:58.192Z,26.30
2018-09-04T13:10:27.127Z,26.40
2018-09-04T13:12:56.006Z,26.60
2018-09-04T13:15:26.315Z,26.80
2018-09-04T13:17:55.452Z,26.90
2018-09-04T13:20:24.163Z,27.20
2018-09-04T13:22:52.965Z,27.20
2018-09-04T13:25:21.919Z,27.20
2018-09-04T13:27:50.770Z,27.30
2018-09-04T13:30:19.724Z,27.20
2018-09-04T13:32:49.422Z,27.20
2018-09-04T13:35:18.708Z,27.00
2018-09-04T13:37:47.549Z,27.00
2018-09-04T13:40:16.227Z,26.90
2018-09-04T13:42:44.972Z,26.80
2018-09-04T13:45:13.664Z,26.60
2018-09-04T13:47:42.346Z,26.40
2018-09-04T13:50:12.056Z,26.40
2018-09-04T13:52:40.956Z,26.30
2018-09-04T13:55:09.747Z,26.30
2018-09-04T13:57:38.889Z,26.20
2018-09-04T14:00:08.936Z,26.20
2018-09-04T14:02:37.684Z,26.00
2018-09-04T14:05:06.426Z,26.00
2018-09-04T14:07:35.317Z,26.10
2018-09-04T14:10:04.593Z,26.20
2018-09-04T14:12:33.327Z,26.30
2018-09-04T14:15:02.647Z,26.30
2018-09-04T14:17:31.521Z,26.40
2018-09-04T14:20:00.259Z,26.30
2018-09-04T14:22:28.947Z,26.30
2018-09-04T14:24:57.617Z,26.40
2018-09-04T14:27:26.366Z,26.40
2018-09-04T14:30:15.539Z,26.30
2018-09-04T14:32:23.725Z,26.30
2018-09-04T14:34:52.471Z,26.30
2018-09-04T14:37:21.839Z,26.20
2018-09-04T14:39:55.593Z,26.20
2018-09-04T14:42:19.719Z,26.20
2018-09-04T14:44:48.610Z,26.10
2018-09-04T14:47:17.340Z,26.10
2018-09-04T14:49:46.003Z,26.10
2018-09-04T14:52:14.663Z,26.10
2018-09-04T14:54:44.424Z,26.20
2018-09-04T14:57:12.992Z,26.40
2018-09-04T14:59:41.730Z,26.40
2018-09-04T15:02:10.327Z,26.60
2018-09-04T15:04:38.890Z,26.60
2018-09-04T15:07:08.358Z,26.60
2018-09-04T15:09:37.773Z,26.50
2018-09-04T15:12:06.738Z,26.50
2018-09-04T15:14:35.458Z,26.60
2018-09-04T15:17:03.985Z,26.60
2018-09-04T15:19:37.330Z,26.60
2018-09-04T15:22:06.178Z,26.50
2018-09-04T15:24:35.005Z,26.40
2018-09-04T15:27:10.683Z,26.40
2018-09-04T15:29:42.609Z,26.30
2018-09-04T15:32:20.917Z,26.10
2018-09-04T15:34:54.215Z,25.90
2018-09-04T15:37:25.364Z,25.90
2018-09-04T15:39:54.355Z,25.80
2018-09-04T15:42:23.597Z,25.60
2018-09-04T15:44:52.569Z,25.50
2018-09-04T15:47:21.654Z,25.40
2018-09-04T15:49:50.412Z,25.50
2018-09-04T15:52:20.694Z,25.30
2018-09-04T15:54:56.950Z,25.30
2018-09-04T15:57:25.681Z,25.20
2018-09-04T15:59:54.370Z,25.20
2018-09-04T16:02:22.937Z,25.20
2018-09-04T16:04:52.219Z,25.20
2018-09-04T16:07:21.277Z,25.20
2018-09-04T16:09:50.765Z,25.30
2018-09-04T16:12:19.366Z,25.30
2018-09-04T16:14:48.200Z,25.40
2018-09-04T16:17:16.989Z,25.40
2018-09-04T16:19:45.527Z,25.40
2018-09-04T16:22:14.292Z,25.40
2018-09-04T16:24:43.548Z,25.30
2018-09-04T16:27:14.333Z,25.30
2018-09-04T16:29:45.006Z,25.30
2018-09-04T16:32:14.811Z,25.30
2018-09-04T16:34:43.725Z,25.20
2018-09-04T16:37:12.422Z,25.20
2018-09-04T16:39:41.202Z,25.20
2018-09-04T16:42:10.041Z,25.10
2018-09-04T16:44:38.631Z,25.00
2018-09-04T16:47:07.314Z,25.00
2018-09-04T16:49:35.893Z,24.90
2018-09-04T16:52:04.636Z,24.90
2018-09-04T16:54:33.558Z,24.90
2018-09-04T16:57:02.167Z,24.90
2018-09-04T16:59:32.937Z,24.80
2018-09-04T17:02:02.308Z,24.80
2018-09-04T17:04:30.788Z,24.70
2018-09-04T17:06:59.336Z,24.70
2018-09-04T17:09:27.930Z,24.60
2018-09-04T17:11:57.316Z,24.60
2018-09-04T17:14:25.788Z,24.60
2018-09-04T17:16:54.304Z,24.40
2018-09-04T17:19:22.887Z,24.40
2018-09-04T17:21:52.505Z,24.20
2018-09-04T17:24:21.061Z,24.00
2018-09-04T17:26:49.812Z,23.90
2018-09-04T17:29:18.455Z,23.70
2018-09-04T17:31:47.475Z,23.60
2018-09-04T17:34:15.977Z,23.50
2018-09-04T17:36:44.584Z,23.40
2018-09-04T17:39:55.976Z,23.30
2018-09-04T17:42:24.435Z,23.30
2018-09-04T17:44:53.016Z,23.20
2018-09-04T17:47:21.612Z,23.20
2018-09-04T17:49:50.105Z,23.10
2018-09-04T17:52:18.678Z,23.10
2018-09-04T17:54:47.343Z,23.10
2018-09-04T17:57:15.859Z,23.00
2018-09-04T17:59:44.416Z,23.00
2018-09-04T18:02:12.959Z,23.00
2018-09-04T18:04:41.544Z,22.90
2018-09-04T18:07:10.094Z,22.90
2018-09-04T18:09:38.618Z,22.90
2018-09-04T18:12:09.083Z,22.80
2018-09-04T18:14:37.699Z,22.70
2018-09-04T18:17:06.877Z,22.60
2018-09-04T18:19:35.489Z,22.60
2018-09-04T18:22:03.998Z,22.50
2018-09-04T18:24:32.600Z,22.30
2018-09-04T18:27:01.276Z,22.30
2018-09-04T18:29:29.787Z,22.20
2018-09-04T18:31:58.312Z,22.20
2018-09-04T18:34:26.991Z,22.20
2018-09-04T18:36:55.631Z,22.00
2018-09-04T18:39:24.165Z,21.90
2018-09-04T18:41:52.819Z,21.90
2018-09-04T18:44:21.472Z,21.70
2018-09-04T18:46:49.962Z,21.70
2018-09-04T18:49:18.736Z,21.70
2018-09-04T18:51:47.417Z,21.70
2018-09-04T18:54:16.646Z,21.60
2018-09-04T18:56:45.414Z,21.50
2018-09-04T18:59:16.136Z,21.40
2018-09-04T19:01:44.924Z,21.30
2018-09-04T19:04:13.696Z,21.40
2018-09-04T19:06:42.550Z,21.30
2018-09-04T19:09:11.740Z,21.30
2018-09-04T19:11:40.615Z,21.30
2018-09-04T19:14:09.987Z,21.20
2018-09-04T19:16:38.856Z,21.10
2018-09-04T19:19:07.539Z,21.10
2018-09-04T19:21:36.116Z,20.90
2018-09-04T19:24:05.408Z,20.90
2018-09-04T19:26:34.666Z,20.80
2018-09-04T19:29:04.038Z,20.80
2018-09-04T19:31:32.744Z,20.80
2018-09-04T19:34:01.259Z,20.70
2018-09-04T19:36:29.842Z,20.60
2018-09-04T19:38:58.385Z,20.50
2018-09-04T19:41:26.917Z,20.50
2018-09-04T19:43:55.402Z,20.40
2018-09-04T19:46:24.245Z,20.40
2018-09-04T19:48:52.887Z,20.40
2018-09-04T19:51:21.458Z,20.30
2018-09-04T19:53:50.033Z,20.30
2018-09-04T19:56:18.700Z,20.30
2018-09-04T19:58:47.331Z,20.30
2018-09-04T20:01:16.054Z,20.30
2018-09-04T20:03:44.762Z,20.30
2018-09-04T20:06:13.643Z,20.40
2018-09-04T20:08:42.167Z,20.40
2018-09-04T20:11:10.968Z,20.50
2018-09-04T20:13:39.581Z,20.60
2018-09-04T20:16:08.133Z,20.60
2018-09-04T20:18:36.714Z,20.70
2018-09-04T20:21:05.213Z,20.70
2018-09-04T20:23:33.865Z,20.70
2018-09-04T20:26:02.336Z,20.70
2018-09-04T20:28:30.879Z,20.70
2018-09-04T20:30:59.426Z,20.80
2018-09-04T20:33:27.960Z,20.80
2018-09-04T20:35:56.575Z,20.80
2018-09-04T20:38:25.093Z,20.70
2018-09-04T20:40:53.628Z,20.70
2018-09-04T20:43:23.113Z,20.60
2018-09-04T20:45:51.656Z,20.60
2018-09-04T20:48:26.754Z,20.50
2018-09-04T20:50:55.567Z,20.50
2018-09-04T20:53:24.061Z,20.40
2018-09-04T20:55:53.024Z,20.40
2018-09-04T20:58:32.579Z,20.30
2018-09-04T21:01:12.411Z,20.30
2018-09-04T21:03:52.009Z,20.40
2018-09-04T21:06:31.749Z,20.40
2018-09-04T21:09:06.745Z,20.40
2018-09-04T21:11:35.238Z,20.40
2018-09-04T21:14:03.747Z,20.40
2018-09-04T21:16:32.332Z,20.40
2018-09-04T21:19:00.892Z,20.40
2018-09-04T21:21:29.469Z,20.40
2018-09-04T21:23:58.120Z,20.30
2018-09-04T21:26:26.642Z,20.40
2018-09-04T21:28:55.169Z,20.30
2018-09-04T21:31:23.760Z,20.30
2018-09-04T21:33:52.230Z,20.30
2018-09-04T21:36:20.903Z,20.30
2018-09-04T21:38:49.518Z,20.20
2018-09-04T21:41:18.104Z,20.30
2018-09-04T21:43:46.567Z,20.20
2018-09-04T21:46:15.052Z,20.20
2018-09-04T21:48:43.580Z,20.10
2018-09-04T21:51:12.205Z,20.10
2018-09-04T21:53:40.832Z,20.10
2018-09-04T21:56:09.351Z,20.00
2018-09-04T21:58:37.942Z,20.00
2018-09-04T22:01:06.563Z,20.00
2018-09-04T22:03:35.062Z,20.00
2018-09-04T22:06:03.773Z,20.00
2018-09-04T22:08:32.756Z,19.90
2018-09-04T22:11:01.246Z,19.90
2018-09-04T22:13:29.720Z,19.90
2018-09-04T22:15:58.261Z,19.90
2018-09-04T22:18:26.866Z,19.90
2018-09-04T22:20:55.369Z,19.90
2018-09-04T22:23:23.892Z,19.90
2018-09-04T22:25:52.371Z,19.90
2018-09-04T22:28:20.974Z,19.90
2018-09-04T22:30:49.517Z,19.90
2018-09-04T22:33:17.992Z,19.80
2018-09-04T22:35:46.646Z,19.80
2018-09-04T22:38:15.163Z,19.80
2018-09-04T22:40:43.686Z,19.80
2018-09-04T22:43:12.196Z,19.70
2018-09-04T22:45:40.743Z,19.80
2018-09-04T22:48:09.268Z,19.80
2018-09-04T22:50:42.978Z,19.80
2018-09-04T22:53:11.476Z,19.90
2018-09-04T22:55:40.615Z,19.80
2018-09-04T22:58:09.158Z,19.80
2018-09-04T23:00:37.760Z,19.80
2018-09-04T23:03:06.320Z,19.80
2018-09-04T23:05:35.018Z,19.70
2018-09-04T23:08:03.699Z,19.80
2018-09-04T23:10:32.274Z,19.80
2018-09-04T23:13:00.840Z,19.70
2018-09-04T23:15:29.358Z,19.70
2018-09-04T23:17:58.141Z,19.70
2018-09-04T23:20:26.605Z,19.70
2018-09-04T23:22:55.108Z,19.70
2018-09-04T23:25:23.611Z,19.70
2018-09-04T23:27:52.078Z,19.70
2018-09-04T23:30:20.560Z,19.70
2018-09-04T23:32:49.018Z,19.70
2018-09-04T23:35:17.491Z,19.60
2018-09-04T23:37:46.542Z,19.60
2018-09-04T23:40:15.105Z,19.60
2018-09-04T23:42:43.605Z,19.60
2018-09-04T23:45:13.521Z,19.60
2018-09-04T23:47:42.592Z,19.60
2018-09-04T23:50:11.101Z,19.50
2018-09-04T23:52:39.580Z,19.50
2018-09-04T23:55:08.457Z,19.50
2018-09-04T23:57:37.124Z,19.40
